createdAt,value
2023-05-24T00:01:00.305Z,13.20
2023-05-24T00:03:30.892Z,17.85
2023-05-24T00:06:00.861Z,15.63
2023-05-24T00:08:28.972Z,18.02
2023-05-24T00:10:57.035Z,15.63
2023-05-24T00:13:25.187Z,14.68
2023-05-24T00:15:53.624Z,15.35
2023-05-24T00:18:21.738Z,12.82
2023-05-24T00:20:51.891Z,11.75
2023-05-24T00:23:21.598Z,14.73
2023-05-24T00:25:49.846Z,13.02
2023-05-24T00:28:18.096Z,15.32
2023-05-24T00:30:47.832Z,13.35
2023-05-24T00:33:16.066Z,15.45
2023-05-24T00:35:44.461Z,18.67
2023-05-24T00:38:12.616Z,11.35
2023-05-24T00:40:42.377Z,11.35
2023-05-24T00:43:11.503Z,13.80
2023-05-24T00:45:39.791Z,11.63
2023-05-24T00:48:08.401Z,13.88
2023-05-24T00:50:37.537Z,11.60
2023-05-24T00:53:05.891Z,13.63
2023-05-24T00:55:36.697Z,12.00
2023-05-24T00:58:06.397Z,15.18
2023-05-24T01:00:34.702Z,13.30
2023-05-24T01:03:03.398Z,12.70
2023-05-24T01:05:32.058Z,12.35
2023-05-24T01:08:09.906Z,10.32
2023-05-24T01:10:46.648Z,13.95
2023-05-24T01:13:25.592Z,13.13
2023-05-24T01:16:02.527Z,11.02
2023-05-24T01:18:34.890Z,13.45
2023-05-24T01:21:17.294Z,13.20
2023-05-24T01:23:59.137Z,12.45
2023-05-24T01:26:38.315Z,11.43
2023-05-24T01:29:08.559Z,13.43
2023-05-24T01:31:39.089Z,19.95
2023-05-24T01:34:08.125Z,10.70
2023-05-24T01:36:36.384Z,11.35
2023-05-24T01:39:05.698Z,13.70
2023-05-24T01:41:41.240Z,12.35
2023-05-24T01:44:19.654Z,11.15
2023-05-24T01:46:55.003Z,12.07
2023-05-24T01:49:28.257Z,13.45
2023-05-24T01:52:01.155Z,10.90
2023-05-24T01:54:34.712Z,11.32
2023-05-24T01:57:08.280Z,14.73
2023-05-24T01:59:41.063Z,15.27
2023-05-24T02:02:09.472Z,15.73
2023-05-24T02:04:37.897Z,17.50
2023-05-24T02:07:06.461Z,11.15
2023-05-24T02:09:34.934Z,9.15
2023-05-24T02:12:03.838Z,15.43
2023-05-24T02:14:32.152Z,12.73
2023-05-24T02:17:02.960Z,18.02
2023-05-24T02:19:31.378Z,10.25
2023-05-24T02:21:59.602Z,13.50
2023-05-24T02:24:27.886Z,11.65
2023-05-24T02:26:56.572Z,11.80
2023-05-24T02:29:25.491Z,10.75
2023-05-24T02:31:56.504Z,12.80
2023-05-24T02:34:26.294Z,12.18
2023-05-24T02:36:55.958Z,11.00
2023-05-24T02:39:24.681Z,11.85
2023-05-24T02:41:52.879Z,11.20
2023-05-24T02:44:21.244Z,12.05
2023-05-24T02:46:49.444Z,12.05
2023-05-24T02:49:17.668Z,14.70
2023-05-24T02:51:47.168Z,10.95
2023-05-24T02:54:17.736Z,11.55
2023-05-24T02:56:46.550Z,10.00
2023-05-24T02:59:17.648Z,11.40
2023-05-24T03:01:46.284Z,13.57
2023-05-24T03:04:14.736Z,14.60
2023-05-24T03:06:43.047Z,10.70
2023-05-24T03:09:13.066Z,11.50
2023-05-24T03:11:41.335Z,12.18
2023-05-24T03:14:11.048Z,10.85
2023-05-24T03:16:42.049Z,9.50
2023-05-24T03:19:10.536Z,9.23
2023-05-24T03:21:39.316Z,11.98
2023-05-24T03:24:09.652Z,10.45
2023-05-24T03:26:39.229Z,9.95
2023-05-24T03:29:07.676Z,8.27
2023-05-24T03:31:40.310Z,10.63
2023-05-24T03:34:08.970Z,14.13
2023-05-24T03:36:39.276Z,13.43
2023-05-24T03:39:07.927Z,16.60
2023-05-24T03:41:51.544Z,11.95
2023-05-24T03:44:20.304Z,19.77
2023-05-24T03:46:48.494Z,13.90
2023-05-24T03:49:17.006Z,13.70
2023-05-24T03:51:45.216Z,10.40
2023-05-24T03:54:13.519Z,15.10
2023-05-24T03:56:43.059Z,16.92
2023-05-24T03:59:12.749Z,12.68
2023-05-24T04:01:41.004Z,12.18
2023-05-24T04:04:09.844Z,18.20
2023-05-24T04:06:38.294Z,13.90
2023-05-24T04:09:06.914Z,16.70
2023-05-24T04:11:36.290Z,14.25
2023-05-24T04:14:04.979Z,11.70
2023-05-24T04:16:34.907Z,13.73
2023-05-24T04:19:07.177Z,18.00
2023-05-24T04:21:36.759Z,14.27
2023-05-24T04:24:05.243Z,11.27
2023-05-24T04:26:34.433Z,14.40
2023-05-24T04:29:03.727Z,15.27
2023-05-24T04:31:34.271Z,13.85
2023-05-24T04:34:04.478Z,13.93
2023-05-24T04:36:34.007Z,16.38
2023-05-24T04:39:05.172Z,11.43
2023-05-24T04:41:35.404Z,11.70
2023-05-24T04:44:03.981Z,17.38
2023-05-24T04:46:32.478Z,20.77
2023-05-24T04:49:02.193Z,17.20
2023-05-24T04:51:31.828Z,14.25
2023-05-24T04:54:01.491Z,16.85
2023-05-24T04:56:29.830Z,18.85
2023-05-24T04:58:57.981Z,14.75
2023-05-24T05:01:26.287Z,15.75
2023-05-24T05:03:54.854Z,13.63
2023-05-24T05:06:23.236Z,14.50
2023-05-24T05:08:53.054Z,15.25
2023-05-24T05:11:21.322Z,11.90
2023-05-24T05:13:49.430Z,13.77
2023-05-24T05:16:18.062Z,14.35
2023-05-24T05:18:46.268Z,13.35
2023-05-24T05:21:14.802Z,13.25
2023-05-24T05:23:42.943Z,14.63
2023-05-24T05:26:13.021Z,15.25
2023-05-24T05:28:41.210Z,9.45
2023-05-24T05:31:09.422Z,12.70
2023-05-24T05:33:37.676Z,8.85
2023-05-24T05:36:06.488Z,19.52
2023-05-24T05:38:34.608Z,10.13
2023-05-24T05:41:02.868Z,14.93
2023-05-24T05:43:32.774Z,9.50
2023-05-24T05:46:01.658Z,10.25
2023-05-24T05:48:29.906Z,15.50
2023-05-24T05:50:58.150Z,10.77
2023-05-24T05:53:28.640Z,10.77
2023-05-24T05:55:57.531Z,19.75
2023-05-24T05:58:25.643Z,11.32
2023-05-24T06:00:55.220Z,9.35
2023-05-24T06:03:23.589Z,13.77
2023-05-24T06:05:51.982Z,11.77
2023-05-24T06:08:20.399Z,11.95
2023-05-24T06:10:50.145Z,14.13
2023-05-24T06:13:20.357Z,11.40
2023-05-24T06:15:48.529Z,14.15
2023-05-24T06:18:18.247Z,11.73
2023-05-24T06:20:46.505Z,15.55
2023-05-24T06:23:15.199Z,10.02
2023-05-24T06:25:44.001Z,8.90
2023-05-24T06:28:12.211Z,8.73
2023-05-24T06:30:40.579Z,14.77
2023-05-24T06:33:09.205Z,9.10
2023-05-24T06:35:38.762Z,10.25
2023-05-24T06:38:07.260Z,10.40
2023-05-24T06:40:35.446Z,16.58
2023-05-24T06:43:03.598Z,10.93
2023-05-24T06:45:33.294Z,10.02
2023-05-24T06:48:02.057Z,10.23
2023-05-24T06:50:30.322Z,12.15
2023-05-24T06:52:59.870Z,12.73
2023-05-24T06:55:28.401Z,11.65
2023-05-24T06:57:57.099Z,13.45
2023-05-24T07:00:25.282Z,14.48
2023-05-24T07:02:53.655Z,11.90
2023-05-24T07:05:22.288Z,11.32
2023-05-24T07:07:50.502Z,12.77
2023-05-24T07:10:20.189Z,9.95
2023-05-24T07:12:48.333Z,14.88
2023-05-24T07:15:16.492Z,10.20
2023-05-24T07:17:44.997Z,12.60
2023-05-24T07:20:14.136Z,16.13
2023-05-24T07:22:43.269Z,13.52
2023-05-24T07:25:11.803Z,11.50
2023-05-24T07:27:41.410Z,23.45
2023-05-24T07:30:23.632Z,14.13
2023-05-24T07:32:58.556Z,14.23
2023-05-24T07:35:27.101Z,12.00
2023-05-24T07:37:55.278Z,14.15
2023-05-24T07:40:23.587Z,26.17
2023-05-24T07:42:53.276Z,18.45
2023-05-24T07:45:22.077Z,37.27
2023-05-24T07:47:50.370Z,13.50
2023-05-24T07:50:19.301Z,60.65
2023-05-24T07:52:47.485Z,13.40
2023-05-24T07:55:16.040Z,44.58
2023-05-24T07:57:44.275Z,15.70
2023-05-24T08:00:16.475Z,14.15
2023-05-24T08:02:46.609Z,37.15
2023-05-24T08:05:15.492Z,17.70
2023-05-24T08:07:43.796Z,39.28
2023-05-24T08:10:13.888Z,15.50
2023-05-24T08:12:42.515Z,20.85
2023-05-24T08:15:11.353Z,11.45
2023-05-24T08:17:41.310Z,12.93
2023-05-24T08:20:13.809Z,8.70
2023-05-24T08:22:42.503Z,22.20
2023-05-24T08:25:11.199Z,13.63
2023-05-24T08:27:39.477Z,14.65
2023-05-24T08:30:08.902Z,14.60
2023-05-24T08:32:38.465Z,18.50
2023-05-24T08:35:20.153Z,11.15
2023-05-24T08:37:49.294Z,11.25
2023-05-24T08:40:18.369Z,16.15
2023-05-24T08:42:47.031Z,11.77
2023-05-24T08:45:16.528Z,17.23
2023-05-24T08:47:45.418Z,9.82
2023-05-24T08:50:15.138Z,9.88
2023-05-24T08:52:45.116Z,14.07
2023-05-24T08:55:13.341Z,10.80
2023-05-24T08:57:42.087Z,11.30
2023-05-24T09:00:12.847Z,16.80
2023-05-24T09:02:43.083Z,10.23
2023-05-24T09:05:14.528Z,10.45
2023-05-24T09:07:46.326Z,9.40
2023-05-24T09:10:14.859Z,10.10
2023-05-24T09:12:49.773Z,10.05
2023-05-24T09:15:18.301Z,12.63
2023-05-24T09:17:46.664Z,7.35
2023-05-24T09:20:15.627Z,10.00
2023-05-24T09:22:46.446Z,9.57
2023-05-24T09:25:16.190Z,9.35
2023-05-24T09:27:47.483Z,10.02
2023-05-24T09:30:17.314Z,12.38
2023-05-24T09:32:57.784Z,11.20
2023-05-24T09:35:27.055Z,8.32
2023-05-24T09:38:00.895Z,10.23
2023-05-24T09:40:30.887Z,18.08
2023-05-24T09:43:07.422Z,8.35
2023-05-24T09:45:42.917Z,10.32
2023-05-24T09:48:15.720Z,6.47
2023-05-24T09:50:45.795Z,8.05
2023-05-24T09:53:18.813Z,9.45
2023-05-24T09:55:47.020Z,10.35
2023-05-24T09:58:16.869Z,8.65
2023-05-24T10:00:45.591Z,15.45
2023-05-24T10:03:15.295Z,9.32
2023-05-24T10:05:45.889Z,11.15
2023-05-24T10:08:18.353Z,15.82
2023-05-24T10:10:47.910Z,15.00
2023-05-24T10:13:18.619Z,11.00
2023-05-24T10:15:47.064Z,15.68
2023-05-24T10:18:15.538Z,16.45
2023-05-24T10:20:44.365Z,13.50
2023-05-24T10:23:20.905Z,18.98
2023-05-24T10:25:53.909Z,12.43
2023-05-24T10:28:24.733Z,15.38
2023-05-24T10:31:02.872Z,26.80
2023-05-24T10:33:33.635Z,12.15
2023-05-24T10:36:02.025Z,15.95
2023-05-24T10:38:31.893Z,9.93
2023-05-24T10:41:00.340Z,15.05
2023-05-24T10:43:28.723Z,12.60
2023-05-24T10:45:57.069Z,17.65
2023-05-24T10:48:42.805Z,20.90
2023-05-24T10:51:37.141Z,13.55
2023-05-24T10:54:20.752Z,14.35
2023-05-24T10:56:52.291Z,14.48
2023-05-24T10:59:35.006Z,13.43
2023-05-24T11:02:03.970Z,15.98
2023-05-24T11:04:34.219Z,10.40
2023-05-24T11:07:04.626Z,9.65
2023-05-24T11:09:35.012Z,11.90
2023-05-24T11:12:08.431Z,11.27
2023-05-24T11:14:39.575Z,17.48
2023-05-24T11:17:08.412Z,14.77
2023-05-24T11:19:38.419Z,18.60
2023-05-24T11:22:09.405Z,14.63
2023-05-24T11:24:39.383Z,10.32
2023-05-24T11:27:08.056Z,17.15
2023-05-24T11:29:42.637Z,16.17
2023-05-24T11:32:11.198Z,16.15
2023-05-24T11:34:40.121Z,16.35
2023-05-24T11:37:08.367Z,11.10
2023-05-24T11:39:39.490Z,12.43
2023-05-24T11:42:08.867Z,16.42
2023-05-24T11:44:39.230Z,17.33
2023-05-24T11:47:09.015Z,12.93
2023-05-24T11:49:37.589Z,10.25
2023-05-24T11:52:06.554Z,14.32
2023-05-24T11:54:35.116Z,12.00
2023-05-24T11:57:06.095Z,11.98
2023-05-24T11:59:37.983Z,12.90
2023-05-24T12:02:08.071Z,13.70
2023-05-24T12:04:36.647Z,10.20
2023-05-24T12:07:05.323Z,11.95
2023-05-24T12:09:33.519Z,11.38
2023-05-24T12:12:02.061Z,14.68
2023-05-24T12:14:34.609Z,16.30
2023-05-24T12:17:03.073Z,16.85
2023-05-24T12:19:35.164Z,15.95
2023-05-24T12:22:06.368Z,11.18
2023-05-24T12:24:35.545Z,13.82
2023-05-24T12:27:06.824Z,15.73
2023-05-24T12:29:37.941Z,13.23
2023-05-24T12:32:11.973Z,12.07
2023-05-24T12:34:43.893Z,15.00
2023-05-24T12:37:13.608Z,13.82
2023-05-24T12:39:43.369Z,9.18
2023-05-24T12:42:13.455Z,13.45
2023-05-24T12:44:45.141Z,14.40
2023-05-24T12:47:13.631Z,13.18
2023-05-24T12:49:41.897Z,12.98
2023-05-24T12:52:10.162Z,16.20
2023-05-24T12:54:38.684Z,13.07
2023-05-24T12:57:07.542Z,17.13
2023-05-24T12:59:35.756Z,14.65
2023-05-24T13:02:05.439Z,14.77
2023-05-24T13:04:34.003Z,13.15
2023-05-24T13:07:04.070Z,10.52
2023-05-24T13:09:33.292Z,13.55
2023-05-24T13:12:01.815Z,18.20
2023-05-24T13:14:30.028Z,8.45
2023-05-24T13:16:58.511Z,9.77
2023-05-24T13:19:28.125Z,15.70
2023-05-24T13:21:56.325Z,11.68
2023-05-24T13:24:24.534Z,6.80
2023-05-24T13:26:54.928Z,7.10
2023-05-24T13:31:54.983Z,8.48
2023-05-24T13:34:24.622Z,11.20
2023-05-24T13:36:54.529Z,9.50
2023-05-24T13:39:23.953Z,12.35
2023-05-24T13:41:52.251Z,9.02
2023-05-24T13:44:20.639Z,10.23
2023-05-24T13:46:48.940Z,8.18
2023-05-24T13:49:17.350Z,8.82
2023-05-24T13:51:45.713Z,7.43
2023-05-24T13:54:15.457Z,9.65
2023-05-24T13:56:44.981Z,10.93
2023-05-24T13:59:13.327Z,11.40
2023-05-24T14:01:41.725Z,5.50
2023-05-24T14:04:09.963Z,10.60
2023-05-24T14:06:38.795Z,10.23
2023-05-24T14:09:08.485Z,7.32
2023-05-24T14:11:38.242Z,6.93
2023-05-24T14:16:37.858Z,9.63
2023-05-24T14:19:06.329Z,10.98
2023-05-24T14:21:34.588Z,19.63
2023-05-24T14:24:02.757Z,11.10
2023-05-24T14:26:34.208Z,14.70
2023-05-24T14:29:03.953Z,5.95
2023-05-24T14:31:33.653Z,9.43
2023-05-24T14:34:01.955Z,7.93
2023-05-24T14:36:33.192Z,12.30
2023-05-24T14:39:01.683Z,11.57
2023-05-24T14:41:30.100Z,10.95
2023-05-24T14:43:58.351Z,12.63
2023-05-24T14:46:28.171Z,13.27
2023-05-24T14:48:56.597Z,6.43
2023-05-24T14:51:24.754Z,10.30
2023-05-24T14:53:53.057Z,13.32
2023-05-24T14:56:21.267Z,11.02
2023-05-24T14:58:49.537Z,8.13
2023-05-24T15:01:17.738Z,12.73
2023-05-24T15:03:47.568Z,7.70
2023-05-24T15:06:15.922Z,7.68
2023-05-24T15:08:44.136Z,12.75
2023-05-24T15:11:12.459Z,9.25
2023-05-24T15:13:40.769Z,8.20
2023-05-24T15:16:09.228Z,7.82
2023-05-24T15:18:37.410Z,5.90
2023-05-24T15:21:07.115Z,9.65
2023-05-24T15:23:35.442Z,12.65
2023-05-24T15:26:03.589Z,10.00
2023-05-24T15:28:31.754Z,8.38
2023-05-24T15:31:01.794Z,6.95
2023-05-24T15:33:30.151Z,12.32
2023-05-24T15:35:58.434Z,11.35
2023-05-24T15:38:28.050Z,9.00
2023-05-24T15:40:56.547Z,10.15
2023-05-24T15:43:24.820Z,12.40
2023-05-24T15:45:53.646Z,13.65
2023-05-24T15:48:22.722Z,20.23
2023-05-24T15:53:22.195Z,19.65
2023-05-24T15:55:52.035Z,14.40
2023-05-24T15:58:20.203Z,14.18
2023-05-24T16:00:48.815Z,13.60
2023-05-24T16:03:17.110Z,17.90
2023-05-24T16:05:45.361Z,16.02
2023-05-24T16:08:16.111Z,19.00
2023-05-24T16:10:45.213Z,19.88
2023-05-24T16:13:14.885Z,17.48
2023-05-24T16:15:47.602Z,14.65
2023-05-24T16:18:18.182Z,19.95
2023-05-24T16:20:46.785Z,18.15
2023-05-24T16:23:15.332Z,20.20
2023-05-24T16:25:45.122Z,14.75
2023-05-24T16:28:14.706Z,16.15
2023-05-24T16:30:43.913Z,19.00
2023-05-24T16:33:12.288Z,16.55
2023-05-24T16:35:40.650Z,20.98
2023-05-24T16:38:08.846Z,21.63
2023-05-24T16:40:37.086Z,16.77
2023-05-24T16:43:05.526Z,21.35
2023-05-24T16:45:35.246Z,15.82
2023-05-24T16:48:03.738Z,19.50
2023-05-24T16:50:32.218Z,19.45
2023-05-24T16:53:00.540Z,24.98
2023-05-24T16:55:29.653Z,19.77
2023-05-24T16:57:57.832Z,24.23
2023-05-24T17:00:26.207Z,19.75
2023-05-24T17:02:59.281Z,21.23
2023-05-24T17:05:27.860Z,18.10
2023-05-24T17:07:56.960Z,15.93
2023-05-24T17:10:25.176Z,23.50
2023-05-24T17:12:53.475Z,18.08
2023-05-24T17:15:21.653Z,17.88
2023-05-24T17:17:49.999Z,21.70
2023-05-24T17:20:19.778Z,20.23
2023-05-24T17:22:49.638Z,22.52
2023-05-24T17:25:18.318Z,19.45
2023-05-24T17:27:46.613Z,19.70
2023-05-24T17:30:15.195Z,17.00
2023-05-24T17:32:43.344Z,16.15
2023-05-24T17:35:11.624Z,23.10
2023-05-24T17:37:41.739Z,20.27
2023-05-24T17:40:11.418Z,18.80
2023-05-24T17:42:40.246Z,16.23
2023-05-24T17:45:09.766Z,18.60
2023-05-24T17:47:37.990Z,18.98
2023-05-24T17:50:07.208Z,19.35
2023-05-24T17:52:35.453Z,24.85
2023-05-24T17:55:05.408Z,20.45
2023-05-24T17:57:33.751Z,16.40
2023-05-24T18:00:02.165Z,18.67
2023-05-24T18:02:30.373Z,18.85
2023-05-24T18:04:58.817Z,20.30
2023-05-24T18:07:28.428Z,22.30
2023-05-24T18:09:59.444Z,21.23
2023-05-24T18:12:30.680Z,19.10
2023-05-24T18:14:59.268Z,20.17
2023-05-24T18:17:28.372Z,18.27
2023-05-24T18:19:57.007Z,17.15
2023-05-24T18:22:25.220Z,17.85
2023-05-24T18:24:53.385Z,24.25
2023-05-24T18:27:21.620Z,17.65
2023-05-24T18:29:51.764Z,17.25
2023-05-24T18:32:20.048Z,26.75
2023-05-24T18:34:48.248Z,22.05
2023-05-24T18:37:16.777Z,25.35
2023-05-24T18:39:45.111Z,24.10
2023-05-24T18:42:13.729Z,24.50
2023-05-24T18:44:41.947Z,27.80
2023-05-24T18:47:12.517Z,25.85
2023-05-24T18:49:42.342Z,24.80
2023-05-24T18:52:10.556Z,21.92
2023-05-24T18:54:39.099Z,24.50
2023-05-24T18:57:07.679Z,23.83
2023-05-24T18:59:37.265Z,23.20
2023-05-24T19:02:06.173Z,21.08
2023-05-24T19:04:35.724Z,22.90
2023-05-24T19:07:04.235Z,25.00
2023-05-24T19:09:32.388Z,26.60
2023-05-24T19:12:04.560Z,23.80
2023-05-24T19:14:32.838Z,19.88
2023-05-24T19:17:01.240Z,19.10
2023-05-24T19:19:30.554Z,25.30
2023-05-24T19:22:00.191Z,22.55
2023-05-24T19:24:28.384Z,23.58
2023-05-24T19:26:56.992Z,22.27
2023-05-24T19:29:25.242Z,22.70
2023-05-24T19:31:53.499Z,19.58
2023-05-24T19:34:21.727Z,23.23
2023-05-24T19:36:49.889Z,22.67
2023-05-24T19:39:19.507Z,24.40
2023-05-24T19:41:47.774Z,28.98
2023-05-24T19:44:16.038Z,28.38
2023-05-24T19:46:44.630Z,22.55
2023-05-24T19:49:13.281Z,20.35
2023-05-24T19:51:41.356Z,22.52
2023-05-24T19:54:10.107Z,19.95
2023-05-24T19:56:39.855Z,23.30
2023-05-24T19:59:08.408Z,26.25
2023-05-24T20:01:36.894Z,25.35
2023-05-24T20:04:05.405Z,25.80
2023-05-24T20:06:33.950Z,28.52
2023-05-24T20:09:03.717Z,24.52
2023-05-24T20:11:32.003Z,26.92
2023-05-24T20:14:01.645Z,22.95
2023-05-24T20:16:30.934Z,23.45
2023-05-24T20:18:59.251Z,25.58
2023-05-24T20:21:27.509Z,25.92
2023-05-24T20:23:58.874Z,25.27
2023-05-24T20:26:27.439Z,24.38
2023-05-24T20:28:55.716Z,29.20
2023-05-24T20:31:25.617Z,34.83
2023-05-24T20:33:53.907Z,26.90
2023-05-24T20:36:22.186Z,27.42
2023-05-24T20:38:50.377Z,30.13
2023-05-24T20:41:18.725Z,28.17
2023-05-24T20:43:47.236Z,27.45
2023-05-24T20:46:15.760Z,26.33
2023-05-24T20:48:45.363Z,27.88
2023-05-24T20:51:13.646Z,26.88
2023-05-24T20:53:41.755Z,27.25
2023-05-24T20:56:10.147Z,33.85
2023-05-24T20:58:39.848Z,33.38
2023-05-24T21:01:08.839Z,32.00
2023-05-24T21:03:37.257Z,28.60
2023-05-24T21:06:07.018Z,29.63
2023-05-24T21:08:35.219Z,28.70
2023-05-24T21:11:03.504Z,29.30
2023-05-24T21:13:31.677Z,25.83
2023-05-24T21:15:59.911Z,32.60
2023-05-24T21:18:28.114Z,29.15
2023-05-24T21:20:56.309Z,28.92
2023-05-24T21:23:26.053Z,34.00
2023-05-24T21:25:54.452Z,28.25
2023-05-24T21:28:22.577Z,30.67
2023-05-24T21:30:50.966Z,27.48
2023-05-24T21:33:19.179Z,28.10
2023-05-24T21:35:47.538Z,28.00
2023-05-24T21:38:15.674Z,30.83
2023-05-24T21:40:45.559Z,28.83
2023-05-24T21:43:13.746Z,31.33
2023-05-24T21:45:42.501Z,29.25
2023-05-24T21:48:11.052Z,34.30
2023-05-24T21:50:39.457Z,28.85
2023-05-24T21:53:07.626Z,30.67
2023-05-24T21:55:36.347Z,29.50
2023-05-24T21:58:05.855Z,29.33
2023-05-24T22:00:34.067Z,30.38
2023-05-24T22:03:04.846Z,27.90
2023-05-24T22:05:33.082Z,31.92
2023-05-24T22:08:01.308Z,32.53
2023-05-24T22:10:29.605Z,31.00
2023-05-24T22:12:57.786Z,28.55
2023-05-24T22:15:28.321Z,30.45
2023-05-24T22:17:58.553Z,32.20
2023-05-24T22:20:27.617Z,32.70
2023-05-24T22:22:55.904Z,32.05
2023-05-24T22:25:24.037Z,33.13
2023-05-24T22:27:53.340Z,28.20
2023-05-24T22:30:21.609Z,30.77
2023-05-24T22:32:51.533Z,33.05
2023-05-24T22:35:20.066Z,34.40
2023-05-24T22:37:48.577Z,34.50
2023-05-24T22:40:17.496Z,34.15
2023-05-24T22:42:45.764Z,34.80
2023-05-24T22:45:14.021Z,35.72
2023-05-24T22:47:42.759Z,34.05
2023-05-24T22:50:12.454Z,33.50
2023-05-24T22:52:42.689Z,34.85
2023-05-24T22:55:11.270Z,34.55
2023-05-24T22:57:39.493Z,39.25
2023-05-24T23:00:09.002Z,34.90
2023-05-24T23:02:37.956Z,39.35
2023-05-24T23:05:07.207Z,41.85
2023-05-24T23:07:38.053Z,35.95
2023-05-24T23:10:06.936Z,40.55
2023-05-24T23:12:36.718Z,39.30
2023-05-24T23:15:05.240Z,39.10
2023-05-24T23:17:33.491Z,39.60
2023-05-24T23:20:03.026Z,39.38
2023-05-24T23:22:31.253Z,42.00
2023-05-24T23:25:00.806Z,39.75
2023-05-24T23:27:29.425Z,42.35
2023-05-24T23:29:57.698Z,41.42
2023-05-24T23:32:26.199Z,41.63
2023-05-24T23:34:54.600Z,40.63
2023-05-24T23:37:22.724Z,42.40
2023-05-24T23:39:51.243Z,43.63
2023-05-24T23:42:20.700Z,41.85
2023-05-24T23:44:48.873Z,45.83
2023-05-24T23:47:17.119Z,40.67
2023-05-24T23:49:45.302Z,44.40
2023-05-24T23:52:13.448Z,46.30
2023-05-24T23:54:41.994Z,47.72
2023-05-24T23:57:10.098Z,40.55
2023-05-24T23:59:39.733Z,42.63
